createdAt,value
2022-10-18T00:01:43.677Z,22.10
2022-10-18T00:04:11.718Z,22.10
2022-10-18T00:06:42.666Z,22.10
2022-10-18T00:09:12.055Z,22.00
2022-10-18T00:11:41.905Z,22.00
2022-10-18T00:14:10.052Z,22.00
2022-10-18T00:16:38.364Z,22.00
2022-10-18T00:19:06.389Z,22.00
2022-10-18T00:21:34.513Z,22.00
2022-10-18T00:24:02.786Z,22.00
2022-10-18T00:26:32.322Z,21.90
2022-10-18T00:29:05.059Z,21.90
2022-10-18T00:31:35.513Z,21.90
2022-10-18T00:34:06.388Z,21.90
2022-10-18T00:36:35.623Z,21.90
2022-10-18T00:39:06.198Z,21.90
2022-10-18T00:41:37.860Z,21.90
2022-10-18T00:44:46.771Z,21.80
2022-10-18T00:47:18.000Z,21.70
2022-10-18T00:49:51.122Z,21.80
2022-10-18T00:52:24.576Z,21.80
2022-10-18T00:54:54.150Z,21.80
2022-10-18T00:57:22.798Z,21.80
2022-10-18T00:59:52.761Z,21.80
2022-10-18T01:02:21.625Z,21.80
2022-10-18T01:04:50.165Z,21.70
2022-10-18T01:07:38.039Z,21.70
2022-10-18T01:10:24.019Z,21.70
2022-10-18T01:13:11.918Z,21.60
2022-10-18T01:15:51.125Z,21.60
2022-10-18T01:18:28.797Z,21.60
2022-10-18T01:21:20.482Z,21.60
2022-10-18T01:24:37.575Z,21.50
2022-10-18T01:27:31.266Z,21.50
2022-10-18T01:30:37.302Z,21.50
2022-10-18T01:33:14.456Z,21.50
2022-10-18T01:35:50.237Z,21.50
2022-10-18T01:38:21.147Z,21.50
2022-10-18T01:40:52.148Z,21.50
2022-10-18T01:43:24.064Z,21.50
2022-10-18T01:45:56.304Z,21.50
2022-10-18T01:48:24.762Z,21.50
2022-10-18T01:50:54.183Z,21.50
2022-10-18T01:53:31.635Z,21.40
2022-10-18T01:56:30.125Z,21.40
2022-10-18T01:59:11.992Z,21.40
2022-10-18T02:01:54.396Z,21.40
2022-10-18T02:04:33.168Z,21.40
2022-10-18T02:07:10.385Z,21.40
2022-10-18T02:09:50.455Z,21.30
2022-10-18T02:12:21.324Z,21.40
2022-10-18T02:14:51.536Z,21.40
2022-10-18T02:17:26.480Z,21.40
2022-10-18T02:19:58.094Z,21.40
2022-10-18T02:22:31.029Z,21.30
2022-10-18T02:25:04.331Z,21.30
2022-10-18T02:27:32.580Z,21.40
2022-10-18T02:30:00.833Z,21.20
2022-10-18T02:32:39.754Z,21.30
2022-10-18T02:35:14.882Z,21.30
2022-10-18T02:37:44.391Z,21.30
2022-10-18T02:40:12.987Z,21.30
2022-10-18T02:42:48.599Z,21.30
2022-10-18T02:45:18.226Z,21.30
2022-10-18T02:47:47.860Z,21.30
2022-10-18T02:50:16.152Z,21.30
2022-10-18T02:52:44.199Z,21.30
2022-10-18T02:55:12.256Z,21.30
2022-10-18T02:57:40.316Z,21.20
2022-10-18T03:00:10.464Z,21.20
2022-10-18T03:02:38.464Z,21.20
2022-10-18T03:05:08.571Z,21.20
2022-10-18T03:07:36.583Z,21.20
2022-10-18T03:10:05.047Z,21.20
2022-10-18T03:12:33.156Z,21.20
2022-10-18T03:15:01.165Z,21.20
2022-10-18T03:17:29.339Z,21.20
2022-10-18T03:19:57.505Z,21.10
2022-10-18T03:24:56.929Z,21.10
2022-10-18T03:27:25.075Z,21.10
2022-10-18T03:29:53.076Z,21.10
2022-10-18T03:32:21.048Z,21.10
2022-10-18T03:34:49.074Z,21.10
2022-10-18T03:37:17.105Z,21.10
2022-10-18T03:39:46.460Z,21.10
2022-10-18T03:42:14.468Z,21.10
2022-10-18T03:44:42.541Z,21.10
2022-10-18T03:47:10.560Z,21.10
2022-10-18T03:49:38.562Z,21.10
2022-10-18T03:52:06.635Z,21.10
2022-10-18T03:54:34.639Z,21.10
2022-10-18T03:57:04.317Z,21.00
2022-10-18T03:59:32.347Z,21.00
2022-10-18T04:02:00.474Z,21.10
2022-10-18T04:04:28.498Z,21.10
2022-10-18T04:06:56.484Z,21.00
2022-10-18T04:09:24.489Z,21.00
2022-10-18T04:11:53.037Z,21.00
2022-10-18T04:14:22.401Z,21.00
2022-10-18T04:16:50.520Z,21.00
2022-10-18T04:19:18.649Z,21.00
2022-10-18T04:21:46.718Z,21.00
2022-10-18T04:24:14.690Z,21.00
2022-10-18T04:26:42.700Z,21.00
2022-10-18T04:29:10.848Z,21.00
2022-10-18T04:31:40.287Z,21.00
2022-10-18T04:34:08.422Z,21.10
2022-10-18T04:36:36.539Z,21.00
2022-10-18T04:39:04.829Z,21.00
2022-10-18T04:41:33.010Z,21.00
2022-10-18T04:44:01.072Z,21.00
2022-10-18T04:46:29.077Z,21.00
2022-10-18T04:49:00.526Z,21.00
2022-10-18T04:51:28.670Z,21.00
2022-10-18T04:53:57.218Z,21.00
2022-10-18T04:56:25.278Z,21.00
2022-10-18T04:58:53.299Z,21.00
2022-10-18T05:01:21.608Z,21.00
2022-10-18T05:03:54.286Z,21.00
2022-10-18T05:06:24.321Z,21.00
2022-10-18T05:08:52.342Z,21.00
2022-10-18T05:11:20.439Z,21.00
2022-10-18T05:13:50.836Z,21.00
2022-10-18T05:16:19.561Z,21.00
2022-10-18T05:18:47.668Z,21.00
2022-10-18T05:21:15.948Z,21.00
2022-10-18T05:23:45.586Z,20.90
2022-10-18T05:26:13.915Z,21.00
2022-10-18T05:28:42.409Z,21.00
2022-10-18T05:31:12.530Z,21.00
2022-10-18T05:33:41.345Z,21.00
2022-10-18T05:36:10.307Z,21.00
2022-10-18T05:38:42.822Z,21.00
2022-10-18T05:41:13.625Z,21.00
2022-10-18T05:43:42.233Z,21.00
2022-10-18T05:46:15.504Z,21.00
2022-10-18T05:48:45.076Z,21.00
2022-10-18T05:51:13.124Z,21.00
2022-10-18T05:53:41.467Z,21.00
2022-10-18T05:56:12.020Z,21.00
2022-10-18T05:58:41.959Z,21.00
2022-10-18T06:01:10.972Z,21.00
2022-10-18T06:03:39.183Z,21.00
2022-10-18T06:06:10.103Z,21.00
2022-10-18T06:08:40.690Z,21.00
2022-10-18T06:11:10.660Z,21.00
2022-10-18T06:13:43.271Z,21.00
2022-10-18T06:16:12.942Z,21.00
2022-10-18T06:18:41.882Z,21.00
2022-10-18T06:21:10.920Z,21.00
2022-10-18T06:23:39.010Z,21.00
2022-10-18T06:26:10.995Z,21.00
2022-10-18T06:28:39.948Z,21.00
2022-10-18T06:31:09.760Z,21.00
2022-10-18T06:33:38.527Z,21.10
2022-10-18T06:36:09.485Z,21.00
2022-10-18T06:38:37.842Z,21.10
2022-10-18T06:41:07.531Z,21.00
2022-10-18T06:43:36.720Z,21.00
2022-10-18T06:46:08.328Z,21.00
2022-10-18T06:48:40.213Z,21.00
2022-10-18T06:51:11.207Z,21.00
2022-10-18T06:53:44.484Z,21.10
2022-10-18T06:56:27.281Z,21.10
2022-10-18T06:58:55.489Z,21.10
2022-10-18T07:01:24.117Z,21.10
2022-10-18T07:03:56.288Z,21.00
2022-10-18T07:06:25.697Z,21.10
2022-10-18T07:08:54.254Z,21.10
2022-10-18T07:11:26.283Z,21.10
2022-10-18T07:14:00.675Z,21.10
2022-10-18T07:16:28.773Z,21.10
2022-10-18T07:18:58.896Z,21.10
2022-10-18T07:21:28.397Z,21.10
2022-10-18T07:23:57.401Z,21.10
2022-10-18T07:26:29.055Z,21.10
2022-10-18T07:29:01.538Z,21.10
2022-10-18T07:31:30.304Z,21.10
2022-10-18T07:33:59.918Z,21.10
2022-10-18T07:36:28.130Z,21.10
2022-10-18T07:38:56.358Z,21.10
2022-10-18T07:41:24.868Z,21.10
2022-10-18T07:43:54.192Z,21.10
2022-10-18T07:46:23.820Z,21.10
2022-10-18T07:48:52.911Z,21.00
2022-10-18T07:51:23.372Z,21.10
2022-10-18T07:53:51.531Z,21.20
2022-10-18T07:56:21.766Z,21.20
2022-10-18T07:58:52.270Z,21.10
2022-10-18T08:01:21.761Z,21.10
2022-10-18T08:03:50.512Z,21.20
2022-10-18T08:06:22.729Z,21.20
2022-10-18T08:08:51.406Z,21.20
2022-10-18T08:11:22.092Z,21.20
2022-10-18T08:13:50.798Z,21.30
2022-10-18T08:16:22.297Z,21.10
2022-10-18T08:18:50.775Z,21.30
2022-10-18T08:21:20.815Z,21.30
2022-10-18T08:23:51.047Z,21.30
2022-10-18T08:26:22.312Z,21.30
2022-10-18T08:28:58.421Z,21.30
2022-10-18T08:31:32.257Z,21.30
2022-10-18T08:34:00.853Z,21.40
2022-10-18T08:36:29.024Z,21.40
2022-10-18T08:38:58.410Z,21.40
2022-10-18T08:42:05.529Z,21.30
2022-10-18T08:44:34.732Z,21.40
2022-10-18T08:47:11.404Z,21.40
2022-10-18T08:49:47.556Z,21.40
2022-10-18T08:52:28.586Z,21.40
2022-10-18T08:55:05.199Z,21.40
2022-10-18T08:57:34.167Z,21.50
2022-10-18T09:00:06.434Z,21.50
2022-10-18T09:03:08.392Z,21.50
2022-10-18T09:05:49.469Z,21.50
2022-10-18T09:08:47.758Z,21.50
2022-10-18T09:11:36.046Z,21.50
2022-10-18T09:14:28.547Z,21.60
2022-10-18T09:17:11.297Z,21.60
2022-10-18T09:20:03.176Z,21.60
2022-10-18T09:22:52.646Z,21.50
2022-10-18T09:25:24.338Z,21.60
2022-10-18T09:28:16.818Z,21.60
2022-10-18T09:30:59.999Z,21.60
2022-10-18T09:33:46.022Z,21.60
2022-10-18T09:36:21.708Z,21.60
2022-10-18T09:38:57.216Z,21.60
2022-10-18T09:41:35.547Z,21.60
2022-10-18T09:44:15.545Z,21.60
2022-10-18T09:46:50.687Z,21.60
2022-10-18T09:49:24.410Z,21.60
2022-10-18T09:51:55.170Z,21.70
2022-10-18T09:54:31.916Z,21.70
2022-10-18T09:57:06.921Z,21.70
2022-10-18T09:59:43.758Z,21.70
2022-10-18T10:02:16.217Z,21.70
2022-10-18T10:04:45.194Z,21.80
2022-10-18T10:07:17.963Z,21.80
2022-10-18T10:09:49.441Z,21.80
2022-10-18T10:12:30.901Z,21.70
2022-10-18T10:15:17.866Z,21.70
2022-10-18T10:17:54.635Z,21.80
2022-10-18T10:20:25.892Z,21.80
2022-10-18T10:22:54.627Z,21.80
2022-10-18T10:25:31.717Z,21.80
2022-10-18T10:28:07.327Z,21.70
2022-10-18T10:30:38.557Z,21.80
2022-10-18T10:33:07.560Z,21.90
2022-10-18T10:35:54.382Z,21.80
2022-10-18T10:38:28.027Z,21.80
2022-10-18T10:40:57.633Z,21.80
2022-10-18T10:43:44.322Z,21.80
2022-10-18T10:46:17.078Z,21.80
2022-10-18T10:48:57.080Z,21.80
2022-10-18T10:51:37.503Z,21.80
2022-10-18T10:54:12.954Z,21.80
2022-10-18T10:56:59.687Z,21.80
2022-10-18T10:59:32.123Z,21.80
2022-10-18T11:02:23.746Z,21.80
2022-10-18T11:04:54.486Z,21.80
2022-10-18T11:07:28.931Z,21.80
2022-10-18T11:10:04.155Z,21.80
2022-10-18T11:12:37.487Z,21.80
2022-10-18T11:15:21.464Z,21.80
2022-10-18T11:18:09.216Z,21.80
2022-10-18T11:20:44.504Z,21.80
2022-10-18T11:23:15.654Z,21.80
2022-10-18T11:26:09.600Z,21.80
2022-10-18T11:29:02.398Z,21.80
2022-10-18T11:31:39.053Z,21.80
2022-10-18T11:34:38.374Z,21.80
2022-10-18T11:37:36.131Z,21.80
2022-10-18T11:40:29.849Z,21.70
2022-10-18T11:43:11.923Z,21.70
2022-10-18T11:45:48.903Z,21.80
2022-10-18T11:48:43.349Z,21.80
2022-10-18T11:51:34.021Z,21.80
2022-10-18T11:54:36.064Z,21.60
2022-10-18T11:57:17.231Z,21.80
2022-10-18T12:00:00.705Z,21.70
2022-10-18T12:02:57.756Z,21.70
2022-10-18T12:05:26.513Z,21.80
2022-10-18T12:08:04.421Z,21.80
2022-10-18T12:10:52.753Z,21.80
2022-10-18T12:13:34.987Z,21.80
2022-10-18T12:16:06.344Z,21.80
2022-10-18T12:18:37.367Z,21.80
2022-10-18T12:21:07.796Z,21.80
2022-10-18T12:23:47.579Z,21.80
2022-10-18T12:26:16.398Z,21.80
2022-10-18T12:29:15.166Z,21.80
2022-10-18T12:31:48.903Z,21.80
2022-10-18T12:34:33.894Z,21.80
2022-10-18T12:37:46.139Z,21.60
2022-10-18T12:40:21.725Z,21.70
2022-10-18T12:42:53.458Z,21.80
2022-10-18T12:45:30.179Z,21.80
2022-10-18T12:48:02.573Z,21.80
2022-10-18T12:50:36.167Z,21.80
2022-10-18T12:53:17.331Z,21.80
2022-10-18T12:55:49.584Z,21.80
2022-10-18T12:58:33.267Z,21.80
2022-10-18T13:01:06.784Z,21.80
2022-10-18T13:04:00.468Z,21.80
2022-10-18T13:07:18.546Z,21.80
2022-10-18T13:10:40.910Z,21.80
2022-10-18T13:13:46.209Z,21.70
2022-10-18T13:16:37.298Z,21.80
2022-10-18T13:19:27.631Z,21.80
2022-10-18T13:22:16.814Z,21.80
2022-10-18T13:24:55.410Z,21.80
2022-10-18T13:27:42.689Z,21.80
2022-10-18T13:30:40.572Z,21.80
2022-10-18T13:33:33.241Z,21.80
2022-10-18T13:36:04.090Z,21.80
2022-10-18T13:38:43.545Z,21.80
2022-10-18T13:41:15.585Z,21.80
2022-10-18T13:44:25.462Z,21.80
2022-10-18T13:47:39.723Z,21.70
2022-10-18T13:50:32.993Z,21.80
2022-10-18T13:53:36.314Z,21.80
2022-10-18T13:56:30.680Z,21.80
2022-10-18T13:59:22.782Z,21.80
2022-10-18T14:02:22.393Z,21.80
2022-10-18T14:05:30.220Z,21.70
2022-10-18T14:08:10.363Z,21.70
2022-10-18T14:11:01.906Z,21.70
2022-10-18T14:13:43.282Z,21.80
2022-10-18T14:16:35.553Z,21.80
2022-10-18T14:19:18.835Z,21.80
2022-10-18T14:21:56.653Z,21.80
2022-10-18T14:24:28.662Z,21.90
2022-10-18T14:27:18.758Z,21.80
2022-10-18T14:29:47.495Z,21.90
2022-10-18T14:32:27.528Z,21.90
2022-10-18T14:35:20.618Z,21.90
2022-10-18T14:37:49.010Z,21.90
2022-10-18T14:40:36.292Z,21.90
2022-10-18T14:43:11.623Z,21.90
2022-10-18T14:45:40.589Z,21.90
2022-10-18T14:48:18.521Z,21.90
2022-10-18T14:50:51.577Z,21.90
2022-10-18T14:53:23.304Z,21.90
2022-10-18T14:55:56.841Z,21.90
2022-10-18T14:58:25.286Z,22.00
2022-10-18T15:00:54.152Z,22.00
2022-10-18T15:03:23.318Z,21.90
2022-10-18T15:05:59.387Z,21.90
2022-10-18T15:08:37.673Z,21.90
2022-10-18T15:11:10.503Z,22.00
2022-10-18T15:13:50.940Z,21.90
2022-10-18T15:16:21.398Z,22.00
2022-10-18T15:19:06.222Z,21.90
2022-10-18T15:21:37.061Z,22.00
2022-10-18T15:24:30.962Z,21.90
2022-10-18T15:27:10.122Z,21.90
2022-10-18T15:29:38.614Z,22.00
2022-10-18T15:32:16.381Z,21.90
2022-10-18T15:34:44.572Z,22.00
2022-10-18T15:37:31.875Z,21.90
2022-10-18T15:40:37.076Z,21.90
2022-10-18T15:43:27.987Z,21.90
2022-10-18T15:46:01.586Z,21.90
2022-10-18T15:48:37.352Z,21.90
2022-10-18T15:51:07.700Z,22.00
2022-10-18T15:53:44.304Z,21.90
2022-10-18T15:59:23.290Z,21.90
2022-10-18T16:01:51.520Z,22.00
2022-10-18T16:04:25.257Z,21.90
2022-10-18T16:06:54.293Z,22.00
2022-10-18T16:09:25.230Z,21.90
2022-10-18T16:11:56.964Z,22.00
2022-10-18T16:14:27.713Z,21.90
2022-10-18T16:17:02.186Z,21.90
2022-10-18T16:19:31.200Z,22.00
2022-10-18T16:22:05.943Z,22.00
2022-10-18T16:24:34.523Z,22.00
2022-10-18T16:27:02.540Z,21.90
2022-10-18T16:29:33.089Z,21.90
2022-10-18T16:32:01.514Z,22.00
2022-10-18T16:34:32.031Z,22.00
2022-10-18T16:37:00.259Z,22.00
2022-10-18T16:39:29.183Z,21.90
2022-10-18T16:41:57.166Z,22.00
2022-10-18T16:44:25.203Z,22.00
2022-10-18T16:46:56.295Z,21.90
2022-10-18T16:49:27.225Z,21.90
2022-10-18T16:51:56.283Z,21.80
2022-10-18T16:54:24.584Z,21.90
2022-10-18T16:56:52.605Z,21.90
2022-10-18T16:59:27.296Z,21.90
2022-10-18T17:01:56.737Z,21.90
2022-10-18T17:04:24.897Z,21.90
2022-10-18T17:06:55.325Z,21.90
2022-10-18T17:09:24.370Z,21.90
2022-10-18T17:11:52.751Z,21.90
2022-10-18T17:14:20.780Z,21.90
2022-10-18T17:16:53.082Z,21.90
2022-10-18T17:19:25.481Z,21.90
2022-10-18T17:21:53.517Z,21.90
2022-10-18T17:24:21.559Z,21.90
2022-10-18T17:26:49.562Z,21.90
2022-10-18T17:29:17.672Z,21.90
2022-10-18T17:31:45.730Z,21.90
2022-10-18T17:34:16.494Z,21.90
2022-10-18T17:36:49.714Z,21.80
2022-10-18T17:39:17.771Z,21.90
2022-10-18T17:41:45.807Z,21.90
2022-10-18T17:44:13.964Z,21.80
2022-10-18T17:46:42.169Z,21.80
2022-10-18T17:49:10.169Z,21.80
2022-10-18T17:51:38.190Z,21.80
2022-10-18T17:54:08.223Z,21.80
2022-10-18T17:56:36.798Z,21.80
2022-10-18T17:59:05.220Z,21.80
2022-10-18T18:01:33.258Z,21.80
2022-10-18T18:04:04.002Z,21.80
2022-10-18T18:06:35.013Z,21.80
2022-10-18T18:09:08.035Z,21.70
2022-10-18T18:11:37.368Z,21.80
2022-10-18T18:14:08.917Z,21.70
2022-10-18T18:16:40.697Z,21.70
2022-10-18T18:19:10.289Z,21.70
2022-10-18T18:21:38.877Z,21.70
2022-10-18T18:24:09.992Z,21.70
2022-10-18T18:26:41.163Z,21.70
2022-10-18T18:29:09.857Z,21.70
2022-10-18T18:31:41.299Z,21.70
2022-10-18T18:34:11.968Z,21.60
2022-10-18T18:36:40.257Z,21.70
2022-10-18T18:39:18.879Z,21.50
2022-10-18T18:41:49.112Z,21.60
2022-10-18T18:44:18.007Z,21.60
2022-10-18T18:46:47.031Z,21.60
2022-10-18T18:49:16.577Z,21.60
2022-10-18T18:51:45.052Z,21.60
2022-10-18T18:54:15.982Z,21.60
2022-10-18T18:56:44.927Z,21.60
2022-10-18T18:59:15.061Z,21.60
2022-10-18T19:01:44.561Z,21.60
2022-10-18T19:04:12.763Z,21.60
2022-10-18T19:06:43.182Z,21.60
2022-10-18T19:09:19.444Z,21.60
2022-10-18T19:11:48.898Z,21.60
2022-10-18T19:14:17.814Z,21.60
2022-10-18T19:16:49.119Z,21.60
2022-10-18T19:19:20.063Z,21.60
2022-10-18T19:21:52.373Z,21.50
2022-10-18T19:24:25.060Z,21.50
2022-10-18T19:26:55.458Z,21.50
2022-10-18T19:29:27.384Z,21.50
2022-10-18T19:31:57.734Z,21.50
2022-10-18T19:34:28.870Z,21.50
2022-10-18T19:36:58.071Z,21.50
2022-10-18T19:39:31.146Z,21.50
2022-10-18T19:42:03.503Z,21.50
2022-10-18T19:44:35.927Z,21.50
2022-10-18T19:47:06.157Z,21.50
2022-10-18T19:49:34.478Z,21.50
2022-10-18T19:52:02.828Z,21.50
2022-10-18T19:54:34.385Z,21.50
2022-10-18T19:57:02.624Z,21.50
2022-10-18T19:59:30.882Z,21.50
2022-10-18T20:02:00.502Z,21.50
2022-10-18T20:04:33.992Z,21.40
2022-10-18T20:07:03.556Z,21.40
2022-10-18T20:09:33.860Z,21.40
2022-10-18T20:12:01.926Z,21.40
2022-10-18T20:14:30.170Z,21.40
2022-10-18T20:16:58.255Z,21.40
2022-10-18T20:19:26.251Z,21.40
2022-10-18T20:21:57.568Z,21.30
2022-10-18T20:24:25.686Z,21.40
2022-10-18T20:26:55.095Z,21.40
2022-10-18T20:29:25.205Z,21.40
2022-10-18T20:31:55.441Z,21.40
2022-10-18T20:34:25.920Z,21.40
2022-10-18T20:36:55.657Z,21.40
2022-10-18T20:39:23.760Z,21.40
2022-10-18T20:41:51.750Z,21.40
2022-10-18T20:44:22.544Z,21.40
2022-10-18T20:46:50.534Z,21.40
2022-10-18T20:49:18.784Z,21.40
2022-10-18T20:51:47.079Z,21.40
2022-10-18T20:54:15.213Z,21.40
2022-10-18T20:56:43.562Z,21.40
2022-10-18T20:59:12.159Z,21.40
2022-10-18T21:01:41.923Z,21.30
2022-10-18T21:04:12.324Z,21.30
2022-10-18T21:06:43.497Z,21.30
2022-10-18T21:09:14.540Z,21.30
2022-10-18T21:11:46.164Z,21.30
2022-10-18T21:14:18.797Z,21.30
2022-10-18T21:16:49.647Z,21.30
2022-10-18T21:19:21.413Z,21.30
2022-10-18T21:21:51.746Z,21.30
2022-10-18T21:24:21.568Z,21.30
2022-10-18T21:26:50.715Z,21.20
2022-10-18T21:29:22.273Z,21.20
2022-10-18T21:31:57.959Z,21.10
2022-10-18T21:34:26.491Z,21.20
2022-10-18T21:36:54.668Z,21.20
2022-10-18T21:41:57.617Z,21.20
2022-10-18T21:44:25.936Z,21.20
2022-10-18T21:46:55.438Z,21.20
2022-10-18T21:49:24.967Z,21.20
2022-10-18T21:51:53.090Z,21.20
2022-10-18T21:54:21.334Z,21.20
2022-10-18T21:56:49.300Z,21.20
2022-10-18T21:59:17.306Z,21.10
2022-10-18T22:01:45.668Z,21.20
2022-10-18T22:04:23.426Z,21.10
2022-10-18T22:06:52.408Z,21.10
2022-10-18T22:09:22.210Z,21.10
2022-10-18T22:11:54.140Z,21.10
2022-10-18T22:14:22.613Z,21.10
2022-10-18T22:16:50.774Z,21.10
2022-10-18T22:19:20.623Z,21.10
2022-10-18T22:21:48.920Z,21.10
2022-10-18T22:24:17.458Z,21.10
2022-10-18T22:26:46.654Z,21.10
2022-10-18T22:29:17.169Z,21.10
2022-10-18T22:31:48.437Z,21.10
2022-10-18T22:34:19.490Z,21.10
2022-10-18T22:36:49.147Z,21.00
2022-10-18T22:39:18.056Z,21.10
2022-10-18T22:41:46.706Z,21.00
2022-10-18T22:44:16.155Z,21.00
2022-10-18T22:46:44.347Z,21.00
2022-10-18T22:49:13.287Z,21.00
2022-10-18T22:51:41.558Z,21.00
2022-10-18T22:54:11.198Z,21.00
2022-10-18T22:56:39.260Z,21.00
2022-10-18T22:59:07.250Z,21.00
2022-10-18T23:01:35.271Z,21.00
2022-10-18T23:04:03.935Z,21.00
2022-10-18T23:06:34.457Z,21.00
2022-10-18T23:09:05.848Z,21.00
2022-10-18T23:11:36.849Z,21.00
2022-10-18T23:14:07.478Z,20.90
2022-10-18T23:16:36.257Z,21.00
2022-10-18T23:19:04.667Z,21.00
2022-10-18T23:21:34.663Z,20.90
2022-10-18T23:24:03.376Z,20.90
2022-10-18T23:26:31.484Z,20.90
2022-10-18T23:29:01.204Z,20.90
2022-10-18T23:31:31.743Z,20.90
2022-10-18T23:34:03.562Z,20.90
2022-10-18T23:36:33.382Z,20.90
2022-10-18T23:39:01.548Z,20.90
2022-10-18T23:41:29.589Z,20.90
2022-10-18T23:43:57.578Z,20.90
2022-10-18T23:46:26.944Z,20.80
2022-10-18T23:48:54.948Z,20.90
2022-10-18T23:51:22.909Z,20.80
2022-10-18T23:53:50.928Z,20.80
2022-10-18T23:56:18.927Z,20.80
2022-10-18T23:58:47.652Z,20.80
